sensor_id;sensor_type;location;lat;lon;timestamp;P1;durP1;ratioP1;P2;durP2;ratioP2
7154;SDS011;3619;53.784;10.440;2023-08-21T00:00:00;0.90;;;0.90;;
7154;SDS011;3619;53.784;10.440;2023-08-21T00:02:28;1.37;;;1.27;;
7154;SDS011;3619;53.784;10.440;2023-08-21T00:04:55;0.87;;;0.87;;
7154;SDS011;3619;53.784;10.440;2023-08-21T00:07:22;1.30;;;1.20;;
7154;SDS011;3619;53.784;10.440;2023-08-21T00:09:49;0.90;;;0.90;;
7154;SDS011;3619;53.784;10.440;2023-08-21T00:12:16;1.83;;;1.53;;
7154;SDS011;3619;53.784;10.440;2023-08-21T00:14:43;1.00;;;1.00;;
7154;SDS011;3619;53.784;10.440;2023-08-21T00:17:09;3.03;;;1.30;;
7154;SDS011;3619;53.784;10.440;2023-08-21T00:19:39;1.27;;;1.10;;
7154;SDS011;3619;53.784;10.440;2023-08-21T00:22:06;0.97;;;0.93;;
7154;SDS011;3619;53.784;10.440;2023-08-21T00:24:33;1.00;;;1.00;;
7154;SDS011;3619;53.784;10.440;2023-08-21T00:27:00;0.80;;;0.80;;
7154;SDS011;3619;53.784;10.440;2023-08-21T00:29:28;1.00;;;1.00;;
7154;SDS011;3619;53.784;10.440;2023-08-21T00:31:58;1.03;;;1.03;;
7154;SDS011;3619;53.784;10.440;2023-08-21T00:34:24;1.30;;;1.20;;
7154;SDS011;3619;53.784;10.440;2023-08-21T00:36:54;1.07;;;1.07;;
7154;SDS011;3619;53.784;10.440;2023-08-21T00:39:21;1.10;;;1.10;;
7154;SDS011;3619;53.784;10.440;2023-08-21T00:41:49;1.13;;;1.10;;
7154;SDS011;3619;53.784;10.440;2023-08-21T00:44:16;1.03;;;1.03;;
7154;SDS011;3619;53.784;10.440;2023-08-21T00:46:43;1.80;;;1.70;;
7154;SDS011;3619;53.784;10.440;2023-08-21T00:49:10;0.97;;;0.97;;
7154;SDS011;3619;53.784;10.440;2023-08-21T00:51:37;1.00;;;1.00;;
7154;SDS011;3619;53.784;10.440;2023-08-21T00:54:06;1.50;;;1.40;;
7154;SDS011;3619;53.784;10.440;2023-08-21T00:56:33;1.27;;;1.27;;
7154;SDS011;3619;53.784;10.440;2023-08-21T00:59:03;1.17;;;1.10;;
7154;SDS011;3619;53.784;10.440;2023-08-21T01:01:29;1.00;;;1.00;;
7154;SDS011;3619;53.784;10.440;2023-08-21T01:03:56;1.37;;;1.33;;
7154;SDS011;3619;53.784;10.440;2023-08-21T01:06:23;1.90;;;1.30;;
7154;SDS011;3619;53.784;10.440;2023-08-21T01:08:53;0.87;;;0.87;;
7154;SDS011;3619;53.784;10.440;2023-08-21T01:11:30;1.23;;;1.23;;
7154;SDS011;3619;53.784;10.440;2023-08-21T01:14:06;1.10;;;1.10;;
7154;SDS011;3619;53.784;10.440;2023-08-21T01:16:43;1.57;;;1.53;;
7154;SDS011;3619;53.784;10.440;2023-08-21T01:19:17;1.03;;;0.97;;
7154;SDS011;3619;53.784;10.440;2023-08-21T01:22:01;1.27;;;1.27;;
7154;SDS011;3619;53.784;10.440;2023-08-21T01:24:29;1.60;;;1.60;;
7154;SDS011;3619;53.784;10.440;2023-08-21T01:26:56;1.47;;;1.47;;
7154;SDS011;3619;53.784;10.440;2023-08-21T01:29:23;1.40;;;1.40;;
7154;SDS011;3619;53.784;10.440;2023-08-21T01:31:52;1.13;;;1.13;;
7154;SDS011;3619;53.784;10.440;2023-08-21T01:34:24;1.00;;;1.00;;
7154;SDS011;3619;53.784;10.440;2023-08-21T01:36:54;1.20;;;1.20;;
7154;SDS011;3619;53.784;10.440;2023-08-21T01:39:22;1.40;;;1.30;;
7154;SDS011;3619;53.784;10.440;2023-08-21T01:41:52;2.17;;;2.07;;
7154;SDS011;3619;53.784;10.440;2023-08-21T01:44:21;1.33;;;1.23;;
7154;SDS011;3619;53.784;10.440;2023-08-21T01:46:48;1.20;;;1.20;;
7154;SDS011;3619;53.784;10.440;2023-08-21T01:49:15;1.20;;;1.20;;
7154;SDS011;3619;53.784;10.440;2023-08-21T01:51:43;3.40;;;1.77;;
7154;SDS011;3619;53.784;10.440;2023-08-21T01:54:10;4.93;;;1.97;;
7154;SDS011;3619;53.784;10.440;2023-08-21T01:56:37;2.07;;;1.97;;
7154;SDS011;3619;53.784;10.440;2023-08-21T01:59:05;1.10;;;1.10;;
7154;SDS011;3619;53.784;10.440;2023-08-21T02:01:32;1.20;;;1.20;;
7154;SDS011;3619;53.784;10.440;2023-08-21T02:03:59;1.87;;;1.77;;
7154;SDS011;3619;53.784;10.440;2023-08-21T02:06:26;1.10;;;1.10;;
7154;SDS011;3619;53.784;10.440;2023-08-21T02:08:53;1.57;;;1.57;;
7154;SDS011;3619;53.784;10.440;2023-08-21T02:11:20;2.13;;;1.17;;
7154;SDS011;3619;53.784;10.440;2023-08-21T02:13:46;1.27;;;1.27;;
7154;SDS011;3619;53.784;10.440;2023-08-21T02:16:15;3.17;;;1.43;;
7154;SDS011;3619;53.784;10.440;2023-08-21T02:18:41;1.30;;;1.27;;
7154;SDS011;3619;53.784;10.440;2023-08-21T02:21:08;1.97;;;1.87;;
7154;SDS011;3619;53.784;10.440;2023-08-21T02:23:35;1.80;;;1.70;;
7154;SDS011;3619;53.784;10.440;2023-08-21T02:26:04;2.93;;;2.73;;
7154;SDS011;3619;53.784;10.440;2023-08-21T02:28:31;2.00;;;1.90;;
7154;SDS011;3619;53.784;10.440;2023-08-21T02:30:58;1.40;;;1.40;;
7154;SDS011;3619;53.784;10.440;2023-08-21T02:33:26;1.80;;;1.70;;
7154;SDS011;3619;53.784;10.440;2023-08-21T02:35:54;1.50;;;1.50;;
7154;SDS011;3619;53.784;10.440;2023-08-21T02:38:21;1.87;;;1.77;;
7154;SDS011;3619;53.784;10.440;2023-08-21T02:40:48;1.50;;;1.50;;
7154;SDS011;3619;53.784;10.440;2023-08-21T02:43:15;2.23;;;2.13;;
7154;SDS011;3619;53.784;10.440;2023-08-21T02:45:42;1.70;;;1.70;;
7154;SDS011;3619;53.784;10.440;2023-08-21T02:48:09;1.80;;;1.70;;
7154;SDS011;3619;53.784;10.440;2023-08-21T02:50:37;2.20;;;2.10;;
7154;SDS011;3619;53.784;10.440;2023-08-21T02:53:04;1.83;;;1.30;;
7154;SDS011;3619;53.784;10.440;2023-08-21T02:55:31;1.30;;;1.30;;
7154;SDS011;3619;53.784;10.440;2023-08-21T02:58:00;2.00;;;1.90;;
7154;SDS011;3619;53.784;10.440;2023-08-21T03:00:27;1.80;;;1.63;;
7154;SDS011;3619;53.784;10.440;2023-08-21T03:02:54;1.70;;;1.60;;
7154;SDS011;3619;53.784;10.440;2023-08-21T03:05:21;1.77;;;1.70;;
7154;SDS011;3619;53.784;10.440;2023-08-21T03:07:50;1.83;;;1.73;;
7154;SDS011;3619;53.784;10.440;2023-08-21T03:10:17;1.97;;;1.93;;
7154;SDS011;3619;53.784;10.440;2023-08-21T03:12:44;1.90;;;1.80;;
7154;SDS011;3619;53.784;10.440;2023-08-21T03:15:11;1.73;;;1.70;;
7154;SDS011;3619;53.784;10.440;2023-08-21T03:17:38;2.17;;;2.07;;
7154;SDS011;3619;53.784;10.440;2023-08-21T03:20:07;1.67;;;1.60;;
7154;SDS011;3619;53.784;10.440;2023-08-21T03:22:34;1.90;;;1.80;;
7154;SDS011;3619;53.784;10.440;2023-08-21T03:25:02;2.30;;;2.20;;
7154;SDS011;3619;53.784;10.440;2023-08-21T03:27:31;2.20;;;2.10;;
7154;SDS011;3619;53.784;10.440;2023-08-21T03:29:58;1.67;;;1.67;;
7154;SDS011;3619;53.784;10.440;2023-08-21T03:32:26;3.07;;;2.20;;
7154;SDS011;3619;53.784;10.440;2023-08-21T03:34:52;1.50;;;1.50;;
7154;SDS011;3619;53.784;10.440;2023-08-21T03:37:19;1.77;;;1.70;;
7154;SDS011;3619;53.784;10.440;2023-08-21T03:39:46;1.40;;;1.40;;
7154;SDS011;3619;53.784;10.440;2023-08-21T03:42:15;3.03;;;2.83;;
7154;SDS011;3619;53.784;10.440;2023-08-21T03:44:41;1.97;;;1.87;;
7154;SDS011;3619;53.784;10.440;2023-08-21T03:47:08;2.10;;;2.00;;
7154;SDS011;3619;53.784;10.440;2023-08-21T03:49:35;2.00;;;1.90;;
7154;SDS011;3619;53.784;10.440;2023-08-21T03:52:02;2.67;;;2.30;;
7154;SDS011;3619;53.784;10.440;2023-08-21T03:54:30;1.63;;;1.63;;
7154;SDS011;3619;53.784;10.440;2023-08-21T03:56:56;1.60;;;1.53;;
7154;SDS011;3619;53.784;10.440;2023-08-21T03:59:24;2.17;;;2.07;;
7154;SDS011;3619;53.784;10.440;2023-08-21T04:01:52;2.50;;;2.13;;
7154;SDS011;3619;53.784;10.440;2023-08-21T04:04:19;1.57;;;1.57;;
7154;SDS011;3619;53.784;10.440;2023-08-21T04:06:45;1.70;;;1.70;;
7154;SDS011;3619;53.784;10.440;2023-08-21T04:09:12;2.10;;;2.00;;
7154;SDS011;3619;53.784;10.440;2023-08-21T04:11:41;2.10;;;2.00;;
7154;SDS011;3619;53.784;10.440;2023-08-21T04:14:08;2.10;;;2.00;;
7154;SDS011;3619;53.784;10.440;2023-08-21T04:16:36;2.23;;;2.13;;
7154;SDS011;3619;53.784;10.440;2023-08-21T04:19:03;1.70;;;1.60;;
7154;SDS011;3619;53.784;10.440;2023-08-21T04:21:31;2.07;;;1.97;;
7154;SDS011;3619;53.784;10.440;2023-08-21T04:23:58;1.57;;;1.57;;
7154;SDS011;3619;53.784;10.440;2023-08-21T04:26:25;2.03;;;1.93;;
7154;SDS011;3619;53.784;10.440;2023-08-21T04:28:54;2.43;;;2.33;;
7154;SDS011;3619;53.784;10.440;2023-08-21T04:31:21;3.13;;;2.87;;
7154;SDS011;3619;53.784;10.440;2023-08-21T04:33:49;1.83;;;1.73;;
7154;SDS011;3619;53.784;10.440;2023-08-21T04:36:16;2.20;;;2.10;;
7154;SDS011;3619;53.784;10.440;2023-08-21T04:38:43;2.17;;;2.07;;
7154;SDS011;3619;53.784;10.440;2023-08-21T04:41:11;2.00;;;1.90;;
7154;SDS011;3619;53.784;10.440;2023-08-21T04:43:38;2.57;;;2.47;;
7154;SDS011;3619;53.784;10.440;2023-08-21T04:46:04;2.60;;;2.50;;
7154;SDS011;3619;53.784;10.440;2023-08-21T04:48:34;1.87;;;1.77;;
7154;SDS011;3619;53.784;10.440;2023-08-21T04:51:02;2.20;;;2.10;;
7154;SDS011;3619;53.784;10.440;2023-08-21T04:53:29;2.23;;;2.13;;
7154;SDS011;3619;53.784;10.440;2023-08-21T04:55:58;2.30;;;2.20;;
7154;SDS011;3619;53.784;10.440;2023-08-21T04:58:25;2.67;;;2.57;;
7154;SDS011;3619;53.784;10.440;2023-08-21T05:00:52;2.57;;;2.47;;
7154;SDS011;3619;53.784;10.440;2023-08-21T05:03:18;2.20;;;2.10;;
7154;SDS011;3619;53.784;10.440;2023-08-21T05:05:51;2.20;;;2.10;;
7154;SDS011;3619;53.784;10.440;2023-08-21T05:08:20;2.40;;;2.30;;
7154;SDS011;3619;53.784;10.440;2023-08-21T05:10:53;3.17;;;2.63;;
7154;SDS011;3619;53.784;10.440;2023-08-21T05:13:22;7.80;;;2.57;;
7154;SDS011;3619;53.784;10.440;2023-08-21T05:15:54;2.00;;;1.90;;
7154;SDS011;3619;53.784;10.440;2023-08-21T05:18:22;2.27;;;2.17;;
7154;SDS011;3619;53.784;10.440;2023-08-21T05:20:49;2.10;;;2.00;;
7154;SDS011;3619;53.784;10.440;2023-08-21T05:23:17;1.83;;;1.80;;
7154;SDS011;3619;53.784;10.440;2023-08-21T05:25:45;2.30;;;2.20;;
7154;SDS011;3619;53.784;10.440;2023-08-21T05:28:15;1.87;;;1.77;;
7154;SDS011;3619;53.784;10.440;2023-08-21T05:30:42;2.03;;;1.93;;
7154;SDS011;3619;53.784;10.440;2023-08-21T05:33:12;1.83;;;1.73;;
7154;SDS011;3619;53.784;10.440;2023-08-21T05:35:39;2.17;;;2.07;;
7154;SDS011;3619;53.784;10.440;2023-08-21T05:38:05;4.53;;;2.70;;
7154;SDS011;3619;53.784;10.440;2023-08-21T05:40:32;2.23;;;2.13;;
7154;SDS011;3619;53.784;10.440;2023-08-21T05:43:00;1.93;;;1.83;;
7154;SDS011;3619;53.784;10.440;2023-08-21T05:45:27;4.30;;;2.53;;
7154;SDS011;3619;53.784;10.440;2023-08-21T05:47:54;2.23;;;2.13;;
7154;SDS011;3619;53.784;10.440;2023-08-21T05:50:21;2.20;;;2.10;;
7154;SDS011;3619;53.784;10.440;2023-08-21T05:52:51;2.77;;;2.57;;
7154;SDS011;3619;53.784;10.440;2023-08-21T05:55:19;2.13;;;2.03;;
7154;SDS011;3619;53.784;10.440;2023-08-21T05:57:46;2.17;;;2.07;;
7154;SDS011;3619;53.784;10.440;2023-08-21T06:00:15;2.73;;;2.53;;
7154;SDS011;3619;53.784;10.440;2023-08-21T06:02:45;1.83;;;1.73;;
7154;SDS011;3619;53.784;10.440;2023-08-21T06:05:12;1.93;;;1.83;;
7154;SDS011;3619;53.784;10.440;2023-08-21T06:07:39;2.47;;;2.37;;
7154;SDS011;3619;53.784;10.440;2023-08-21T06:10:07;4.37;;;2.33;;
7154;SDS011;3619;53.784;10.440;2023-08-21T06:12:36;2.93;;;2.83;;
7154;SDS011;3619;53.784;10.440;2023-08-21T06:15:04;2.20;;;2.10;;
7154;SDS011;3619;53.784;10.440;2023-08-21T06:17:34;2.90;;;2.70;;
7154;SDS011;3619;53.784;10.440;2023-08-21T06:20:01;2.60;;;2.50;;
7154;SDS011;3619;53.784;10.440;2023-08-21T06:22:30;2.97;;;2.87;;
7154;SDS011;3619;53.784;10.440;2023-08-21T06:24:57;3.83;;;3.63;;
7154;SDS011;3619;53.784;10.440;2023-08-21T06:27:24;3.73;;;3.50;;
7154;SDS011;3619;53.784;10.440;2023-08-21T06:29:51;3.53;;;3.33;;
7154;SDS011;3619;53.784;10.440;2023-08-21T06:32:17;4.00;;;3.33;;
7154;SDS011;3619;53.784;10.440;2023-08-21T06:34:46;4.37;;;3.93;;
7154;SDS011;3619;53.784;10.440;2023-08-21T06:37:13;3.80;;;3.70;;
7154;SDS011;3619;53.784;10.440;2023-08-21T06:39:40;3.87;;;3.73;;
7154;SDS011;3619;53.784;10.440;2023-08-21T06:42:07;3.97;;;3.87;;
7154;SDS011;3619;53.784;10.440;2023-08-21T06:44:35;4.70;;;4.50;;
7154;SDS011;3619;53.784;10.440;2023-08-21T06:47:02;5.00;;;4.80;;
7154;SDS011;3619;53.784;10.440;2023-08-21T06:49:28;4.53;;;4.33;;
7154;SDS011;3619;53.784;10.440;2023-08-21T06:51:58;3.67;;;3.47;;
7154;SDS011;3619;53.784;10.440;2023-08-21T06:54:25;5.77;;;4.20;;
7154;SDS011;3619;53.784;10.440;2023-08-21T06:56:51;4.23;;;4.13;;
7154;SDS011;3619;53.784;10.440;2023-08-21T06:59:19;3.97;;;3.87;;
7154;SDS011;3619;53.784;10.440;2023-08-21T07:01:46;3.33;;;3.23;;
7154;SDS011;3619;53.784;10.440;2023-08-21T07:04:13;5.13;;;4.83;;
7154;SDS011;3619;53.784;10.440;2023-08-21T07:06:40;4.30;;;4.10;;
7154;SDS011;3619;53.784;10.440;2023-08-21T07:09:08;4.47;;;4.27;;
7154;SDS011;3619;53.784;10.440;2023-08-21T07:11:35;4.23;;;4.13;;
7154;SDS011;3619;53.784;10.440;2023-08-21T07:14:02;4.03;;;3.83;;
7154;SDS011;3619;53.784;10.440;2023-08-21T07:16:31;4.53;;;4.23;;
7154;SDS011;3619;53.784;10.440;2023-08-21T07:18:58;3.70;;;3.60;;
7154;SDS011;3619;53.784;10.440;2023-08-21T07:21:25;4.87;;;4.67;;
7154;SDS011;3619;53.784;10.440;2023-08-21T07:23:51;4.03;;;3.93;;
7154;SDS011;3619;53.784;10.440;2023-08-21T07:26:19;4.27;;;4.07;;
7154;SDS011;3619;53.784;10.440;2023-08-21T07:28:47;3.30;;;3.20;;
7154;SDS011;3619;53.784;10.440;2023-08-21T07:31:14;2.80;;;2.70;;
7154;SDS011;3619;53.784;10.440;2023-08-21T07:33:41;3.57;;;3.47;;
7154;SDS011;3619;53.784;10.440;2023-08-21T07:36:08;4.33;;;4.23;;
7154;SDS011;3619;53.784;10.440;2023-08-21T07:38:34;4.47;;;3.80;;
7154;SDS011;3619;53.784;10.440;2023-08-21T07:41:02;3.37;;;3.27;;
7154;SDS011;3619;53.784;10.440;2023-08-21T07:43:31;3.50;;;3.40;;
7154;SDS011;3619;53.784;10.440;2023-08-21T07:46:01;2.20;;;2.10;;
7154;SDS011;3619;53.784;10.440;2023-08-21T07:48:29;2.30;;;2.20;;
7154;SDS011;3619;53.784;10.440;2023-08-21T07:50:57;7.37;;;2.83;;
7154;SDS011;3619;53.784;10.440;2023-08-21T07:53:24;2.60;;;2.50;;
7154;SDS011;3619;53.784;10.440;2023-08-21T07:55:52;2.73;;;2.63;;
7154;SDS011;3619;53.784;10.440;2023-08-21T07:58:19;1.87;;;1.83;;
7154;SDS011;3619;53.784;10.440;2023-08-21T08:00:49;1.80;;;1.80;;
7154;SDS011;3619;53.784;10.440;2023-08-21T08:03:16;1.80;;;1.70;;
7154;SDS011;3619;53.784;10.440;2023-08-21T08:05:43;1.87;;;1.83;;
7154;SDS011;3619;53.784;10.440;2023-08-21T08:08:10;2.00;;;1.90;;
7154;SDS011;3619;53.784;10.440;2023-08-21T08:10:37;1.30;;;1.30;;
7154;SDS011;3619;53.784;10.440;2023-08-21T08:13:04;1.33;;;1.33;;
7154;SDS011;3619;53.784;10.440;2023-08-21T08:15:32;1.63;;;1.60;;
7154;SDS011;3619;53.784;10.440;2023-08-21T08:18:02;1.13;;;1.13;;
7154;SDS011;3619;53.784;10.440;2023-08-21T08:20:30;1.73;;;1.63;;
7154;SDS011;3619;53.784;10.440;2023-08-21T08:22:57;1.50;;;1.40;;
7154;SDS011;3619;53.784;10.440;2023-08-21T08:25:24;1.60;;;1.50;;
7154;SDS011;3619;53.784;10.440;2023-08-21T08:27:51;2.70;;;1.37;;
7154;SDS011;3619;53.784;10.440;2023-08-21T08:30:18;1.00;;;1.00;;
7154;SDS011;3619;53.784;10.440;2023-08-21T08:32:45;0.70;;;0.70;;
7154;SDS011;3619;53.784;10.440;2023-08-21T08:35:13;0.73;;;0.73;;
7154;SDS011;3619;53.784;10.440;2023-08-21T08:37:40;0.97;;;0.97;;
7154;SDS011;3619;53.784;10.440;2023-08-21T08:40:09;0.77;;;0.77;;
7154;SDS011;3619;53.784;10.440;2023-08-21T08:42:36;0.77;;;0.77;;
7154;SDS011;3619;53.784;10.440;2023-08-21T08:45:04;0.80;;;0.80;;
7154;SDS011;3619;53.784;10.440;2023-08-21T08:47:32;1.17;;;1.17;;
7154;SDS011;3619;53.784;10.440;2023-08-21T08:50:01;0.83;;;0.83;;
7154;SDS011;3619;53.784;10.440;2023-08-21T08:52:35;1.00;;;1.00;;
7154;SDS011;3619;53.784;10.440;2023-08-21T08:55:03;0.80;;;0.80;;
7154;SDS011;3619;53.784;10.440;2023-08-21T08:57:31;0.90;;;0.90;;
7154;SDS011;3619;53.784;10.440;2023-08-21T08:59:59;0.90;;;0.90;;
7154;SDS011;3619;53.784;10.440;2023-08-21T09:02:29;1.57;;;1.47;;
7154;SDS011;3619;53.784;10.440;2023-08-21T09:04:59;0.70;;;0.70;;
7154;SDS011;3619;53.784;10.440;2023-08-21T09:07:28;0.80;;;0.80;;
7154;SDS011;3619;53.784;10.440;2023-08-21T09:09:57;2.97;;;1.20;;
7154;SDS011;3619;53.784;10.440;2023-08-21T09:12:24;0.70;;;0.70;;
7154;SDS011;3619;53.784;10.440;2023-08-21T09:14:51;0.63;;;0.63;;
7154;SDS011;3619;53.784;10.440;2023-08-21T09:17:17;0.70;;;0.70;;
7154;SDS011;3619;53.784;10.440;2023-08-21T09:19:45;0.63;;;0.63;;
7154;SDS011;3619;53.784;10.440;2023-08-21T09:22:12;0.80;;;0.80;;
7154;SDS011;3619;53.784;10.440;2023-08-21T09:24:41;0.80;;;0.80;;
7154;SDS011;3619;53.784;10.440;2023-08-21T09:27:30;0.70;;;0.70;;
7154;SDS011;3619;53.784;10.440;2023-08-21T09:29:57;0.70;;;0.70;;
7154;SDS011;3619;53.784;10.440;2023-08-21T09:32:24;0.70;;;0.70;;
7154;SDS011;3619;53.784;10.440;2023-08-21T09:34:51;0.77;;;0.77;;
7154;SDS011;3619;53.784;10.440;2023-08-21T09:37:18;0.87;;;0.87;;
7154;SDS011;3619;53.784;10.440;2023-08-21T09:39:45;0.87;;;0.87;;
7154;SDS011;3619;53.784;10.440;2023-08-21T09:42:16;0.80;;;0.80;;
7154;SDS011;3619;53.784;10.440;2023-08-21T09:44:44;1.33;;;1.00;;
7154;SDS011;3619;53.784;10.440;2023-08-21T09:47:16;0.70;;;0.70;;
7154;SDS011;3619;53.784;10.440;2023-08-21T09:49:46;0.70;;;0.70;;
7154;SDS011;3619;53.784;10.440;2023-08-21T09:52:16;0.80;;;0.80;;
7154;SDS011;3619;53.784;10.440;2023-08-21T09:54:43;0.97;;;0.90;;
7154;SDS011;3619;53.784;10.440;2023-08-21T09:57:09;0.70;;;0.70;;
7154;SDS011;3619;53.784;10.440;2023-08-21T09:59:39;0.80;;;0.80;;
7154;SDS011;3619;53.784;10.440;2023-08-21T10:02:07;0.77;;;0.77;;
7154;SDS011;3619;53.784;10.440;2023-08-21T10:04:37;0.70;;;0.70;;
7154;SDS011;3619;53.784;10.440;2023-08-21T10:07:08;0.70;;;0.70;;
7154;SDS011;3619;53.784;10.440;2023-08-21T10:09:37;0.87;;;0.87;;
7154;SDS011;3619;53.784;10.440;2023-08-21T10:12:07;0.70;;;0.70;;
7154;SDS011;3619;53.784;10.440;2023-08-21T10:14:38;0.70;;;0.70;;
7154;SDS011;3619;53.784;10.440;2023-08-21T10:17:06;0.60;;;0.60;;
7154;SDS011;3619;53.784;10.440;2023-08-21T10:19:36;0.60;;;0.60;;
7154;SDS011;3619;53.784;10.440;2023-08-21T10:22:03;0.70;;;0.70;;
7154;SDS011;3619;53.784;10.440;2023-08-21T10:24:33;0.60;;;0.60;;
7154;SDS011;3619;53.784;10.440;2023-08-21T10:27:01;0.80;;;0.80;;
7154;SDS011;3619;53.784;10.440;2023-08-21T10:29:30;0.80;;;0.80;;
7154;SDS011;3619;53.784;10.440;2023-08-21T10:32:07;0.90;;;0.90;;
7154;SDS011;3619;53.784;10.440;2023-08-21T10:34:35;0.80;;;0.80;;
7154;SDS011;3619;53.784;10.440;2023-08-21T10:37:05;0.87;;;0.87;;
7154;SDS011;3619;53.784;10.440;2023-08-21T10:39:32;0.70;;;0.70;;
7154;SDS011;3619;53.784;10.440;2023-08-21T10:42:03;0.87;;;0.73;;
7154;SDS011;3619;53.784;10.440;2023-08-21T10:44:34;0.73;;;0.73;;
7154;SDS011;3619;53.784;10.440;2023-08-21T10:49:59;0.90;;;0.90;;
7154;SDS011;3619;53.784;10.440;2023-08-21T10:52:29;0.60;;;0.60;;
7154;SDS011;3619;53.784;10.440;2023-08-21T10:54:58;0.70;;;0.70;;
7154;SDS011;3619;53.784;10.440;2023-08-21T10:57:27;0.83;;;0.83;;
7154;SDS011;3619;53.784;10.440;2023-08-21T10:59:55;0.70;;;0.70;;
7154;SDS011;3619;53.784;10.440;2023-08-21T11:02:23;0.63;;;0.63;;
7154;SDS011;3619;53.784;10.440;2023-08-21T11:04:51;0.60;;;0.60;;
7154;SDS011;3619;53.784;10.440;2023-08-21T11:07:20;0.70;;;0.70;;
7154;SDS011;3619;53.784;10.440;2023-08-21T11:09:47;0.63;;;0.63;;
7154;SDS011;3619;53.784;10.440;2023-08-21T11:12:15;0.77;;;0.77;;
7154;SDS011;3619;53.784;10.440;2023-08-21T11:14:43;0.80;;;0.80;;
7154;SDS011;3619;53.784;10.440;2023-08-21T11:17:10;0.70;;;0.70;;
7154;SDS011;3619;53.784;10.440;2023-08-21T11:19:38;0.70;;;0.70;;
7154;SDS011;3619;53.784;10.440;2023-08-21T11:22:07;0.70;;;0.70;;
7154;SDS011;3619;53.784;10.440;2023-08-21T11:24:43;0.60;;;0.60;;
7154;SDS011;3619;53.784;10.440;2023-08-21T11:27:12;0.77;;;0.77;;
7154;SDS011;3619;53.784;10.440;2023-08-21T11:29:41;0.97;;;0.80;;
7154;SDS011;3619;53.784;10.440;2023-08-21T11:32:09;6.40;;;1.03;;
7154;SDS011;3619;53.784;10.440;2023-08-21T11:34:40;0.60;;;0.60;;
7154;SDS011;3619;53.784;10.440;2023-08-21T11:37:07;1.37;;;0.80;;
7154;SDS011;3619;53.784;10.440;2023-08-21T11:39:43;0.90;;;0.90;;
7154;SDS011;3619;53.784;10.440;2023-08-21T11:42:11;0.70;;;0.70;;
7154;SDS011;3619;53.784;10.440;2023-08-21T11:44:39;0.80;;;0.80;;
7154;SDS011;3619;53.784;10.440;2023-08-21T11:47:07;0.97;;;0.97;;
7154;SDS011;3619;53.784;10.440;2023-08-21T11:49:46;0.67;;;0.67;;
7154;SDS011;3619;53.784;10.440;2023-08-21T11:52:17;0.80;;;0.80;;
7154;SDS011;3619;53.784;10.440;2023-08-21T11:54:48;0.67;;;0.67;;
7154;SDS011;3619;53.784;10.440;2023-08-21T11:57:16;0.83;;;0.83;;
7154;SDS011;3619;53.784;10.440;2023-08-21T11:59:45;0.87;;;0.87;;
7154;SDS011;3619;53.784;10.440;2023-08-21T12:02:16;1.03;;;0.93;;
7154;SDS011;3619;53.784;10.440;2023-08-21T12:04:44;0.80;;;0.80;;
7154;SDS011;3619;53.784;10.440;2023-08-21T12:07:11;0.70;;;0.70;;
7154;SDS011;3619;53.784;10.440;2023-08-21T12:09:38;0.80;;;0.80;;
7154;SDS011;3619;53.784;10.440;2023-08-21T12:12:07;0.70;;;0.70;;
7154;SDS011;3619;53.784;10.440;2023-08-21T12:14:34;0.80;;;0.80;;
7154;SDS011;3619;53.784;10.440;2023-08-21T12:17:04;0.70;;;0.70;;
7154;SDS011;3619;53.784;10.440;2023-08-21T12:19:32;0.70;;;0.70;;
7154;SDS011;3619;53.784;10.440;2023-08-21T12:21:59;0.70;;;0.70;;
7154;SDS011;3619;53.784;10.440;2023-08-21T12:24:26;0.70;;;0.70;;
7154;SDS011;3619;53.784;10.440;2023-08-21T12:26:53;0.70;;;0.70;;
7154;SDS011;3619;53.784;10.440;2023-08-21T12:29:22;0.70;;;0.70;;
7154;SDS011;3619;53.784;10.440;2023-08-21T12:31:49;0.70;;;0.70;;
7154;SDS011;3619;53.784;10.440;2023-08-21T12:34:15;0.60;;;0.60;;
7154;SDS011;3619;53.784;10.440;2023-08-21T12:36:42;0.77;;;0.77;;
7154;SDS011;3619;53.784;10.440;2023-08-21T12:39:09;0.60;;;0.60;;
7154;SDS011;3619;53.784;10.440;2023-08-21T12:41:36;0.73;;;0.73;;
7154;SDS011;3619;53.784;10.440;2023-08-21T12:44:03;0.80;;;0.80;;
7154;SDS011;3619;53.784;10.440;2023-08-21T12:46:37;0.77;;;0.77;;
7154;SDS011;3619;53.784;10.440;2023-08-21T12:49:04;0.70;;;0.70;;
7154;SDS011;3619;53.784;10.440;2023-08-21T12:51:32;0.70;;;0.70;;
7154;SDS011;3619;53.784;10.440;2023-08-21T12:54:01;0.90;;;0.90;;
7154;SDS011;3619;53.784;10.440;2023-08-21T12:56:28;0.80;;;0.80;;
7154;SDS011;3619;53.784;10.440;2023-08-21T12:58:55;0.67;;;0.67;;
7154;SDS011;3619;53.784;10.440;2023-08-21T13:01:22;0.70;;;0.70;;
7154;SDS011;3619;53.784;10.440;2023-08-21T13:03:51;0.70;;;0.70;;
7154;SDS011;3619;53.784;10.440;2023-08-21T13:06:18;0.70;;;0.70;;
7154;SDS011;3619;53.784;10.440;2023-08-21T13:08:46;0.80;;;0.80;;
7154;SDS011;3619;53.784;10.440;2023-08-21T13:11:13;0.77;;;0.77;;
7154;SDS011;3619;53.784;10.440;2023-08-21T13:13:41;0.90;;;0.90;;
7154;SDS011;3619;53.784;10.440;2023-08-21T13:16:08;0.80;;;0.80;;
7154;SDS011;3619;53.784;10.440;2023-08-21T13:18:34;0.90;;;0.90;;
7154;SDS011;3619;53.784;10.440;2023-08-21T13:21:02;1.57;;;0.90;;
7154;SDS011;3619;53.784;10.440;2023-08-21T13:23:29;0.83;;;0.83;;
7154;SDS011;3619;53.784;10.440;2023-08-21T13:25:59;1.00;;;0.90;;
7154;SDS011;3619;53.784;10.440;2023-08-21T13:28:26;0.80;;;0.80;;
7154;SDS011;3619;53.784;10.440;2023-08-21T13:30:53;0.80;;;0.70;;
7154;SDS011;3619;53.784;10.440;2023-08-21T13:33:23;0.70;;;0.70;;
7154;SDS011;3619;53.784;10.440;2023-08-21T13:35:50;0.80;;;0.80;;
7154;SDS011;3619;53.784;10.440;2023-08-21T13:38:21;0.80;;;0.80;;
7154;SDS011;3619;53.784;10.440;2023-08-21T13:40:48;1.10;;;1.00;;
7154;SDS011;3619;53.784;10.440;2023-08-21T13:43:19;0.70;;;0.70;;
7154;SDS011;3619;53.784;10.440;2023-08-21T13:45:46;0.70;;;0.70;;
7154;SDS011;3619;53.784;10.440;2023-08-21T13:48:14;0.80;;;0.80;;
7154;SDS011;3619;53.784;10.440;2023-08-21T13:50:41;0.70;;;0.70;;
7154;SDS011;3619;53.784;10.440;2023-08-21T13:53:08;0.80;;;0.80;;
7154;SDS011;3619;53.784;10.440;2023-08-21T13:55:36;0.80;;;0.80;;
7154;SDS011;3619;53.784;10.440;2023-08-21T13:58:03;1.00;;;1.00;;
7154;SDS011;3619;53.784;10.440;2023-08-21T14:00:30;0.70;;;0.70;;
7154;SDS011;3619;53.784;10.440;2023-08-21T14:02:57;0.80;;;0.80;;
7154;SDS011;3619;53.784;10.440;2023-08-21T14:05:23;0.70;;;0.70;;
7154;SDS011;3619;53.784;10.440;2023-08-21T14:07:52;0.80;;;0.80;;
7154;SDS011;3619;53.784;10.440;2023-08-21T14:10:20;2.00;;;0.83;;
7154;SDS011;3619;53.784;10.440;2023-08-21T14:12:49;0.77;;;0.77;;
7154;SDS011;3619;53.784;10.440;2023-08-21T14:15:16;0.90;;;0.90;;
7154;SDS011;3619;53.784;10.440;2023-08-21T14:17:43;0.70;;;0.70;;
7154;SDS011;3619;53.784;10.440;2023-08-21T14:20:10;0.87;;;0.87;;
7154;SDS011;3619;53.784;10.440;2023-08-21T14:22:37;0.80;;;0.80;;
7154;SDS011;3619;53.784;10.440;2023-08-21T14:25:04;0.70;;;0.70;;
7154;SDS011;3619;53.784;10.440;2023-08-21T14:27:34;0.80;;;0.80;;
7154;SDS011;3619;53.784;10.440;2023-08-21T14:30:03;0.73;;;0.73;;
7154;SDS011;3619;53.784;10.440;2023-08-21T14:32:31;0.80;;;0.80;;
7154;SDS011;3619;53.784;10.440;2023-08-21T14:35:00;1.00;;;1.00;;
7154;SDS011;3619;53.784;10.440;2023-08-21T14:37:27;1.00;;;1.00;;
7154;SDS011;3619;53.784;10.440;2023-08-21T14:39:54;2.90;;;1.00;;
7154;SDS011;3619;53.784;10.440;2023-08-21T14:42:21;0.80;;;0.80;;
7154;SDS011;3619;53.784;10.440;2023-08-21T14:44:48;0.80;;;0.80;;
7154;SDS011;3619;53.784;10.440;2023-08-21T14:47:16;0.67;;;0.67;;
7154;SDS011;3619;53.784;10.440;2023-08-21T14:49:42;0.90;;;0.80;;
7154;SDS011;3619;53.784;10.440;2023-08-21T14:52:11;0.80;;;0.80;;
7154;SDS011;3619;53.784;10.440;2023-08-21T14:54:38;0.80;;;0.80;;
7154;SDS011;3619;53.784;10.440;2023-08-21T14:57:05;0.80;;;0.80;;
7154;SDS011;3619;53.784;10.440;2023-08-21T14:59:32;0.80;;;0.80;;
7154;SDS011;3619;53.784;10.440;2023-08-21T15:01:58;0.80;;;0.80;;
7154;SDS011;3619;53.784;10.440;2023-08-21T15:04:27;0.80;;;0.80;;
7154;SDS011;3619;53.784;10.440;2023-08-21T15:06:56;0.80;;;0.80;;